createdAt,value
2024-03-09T00:00:04.463Z,26.6330
2024-03-09T00:00:15.831Z,26.6380
2024-03-09T00:00:26.897Z,26.6570
2024-03-09T00:00:37.999Z,26.6620
2024-03-09T00:00:49.049Z,26.6510
2024-03-09T00:01:00.091Z,26.6620
2024-03-09T00:01:11.158Z,26.6620
2024-03-09T00:01:22.195Z,26.6670
2024-03-09T00:01:33.275Z,26.6670
2024-03-09T00:01:44.399Z,26.6710
2024-03-09T00:01:55.589Z,26.6870
2024-03-09T00:02:06.759Z,26.6870
2024-03-09T00:02:18.011Z,26.6900
2024-03-09T00:02:29.354Z,26.6830
2024-03-09T00:02:40.538Z,26.6830
2024-03-09T00:02:51.695Z,26.6570
2024-03-09T00:03:02.801Z,26.6730
2024-03-09T00:03:14.312Z,26.6570
2024-03-09T00:03:27.445Z,26.6870
2024-03-09T00:03:39.999Z,26.7530
2024-03-09T00:03:51.049Z,26.7080
2024-03-09T00:04:02.107Z,26.6950
2024-03-09T00:04:13.181Z,26.6950
2024-03-09T00:04:24.272Z,26.6830
2024-03-09T00:04:35.347Z,26.6900
2024-03-09T00:04:46.414Z,26.6730
2024-03-09T00:04:57.570Z,26.6600
2024-03-09T00:05:08.756Z,26.6660
2024-03-09T00:05:19.834Z,26.6760
2024-03-09T00:05:30.894Z,26.6600
2024-03-09T00:05:42.028Z,26.6600
2024-03-09T00:05:53.093Z,26.6600
2024-03-09T00:06:04.144Z,26.6540
2024-03-09T00:06:15.197Z,26.6620
2024-03-09T00:06:26.259Z,26.6510
2024-03-09T00:06:37.328Z,26.6380
2024-03-09T00:06:48.377Z,26.6540
2024-03-09T00:06:59.414Z,26.6540
2024-03-09T00:07:10.445Z,26.6510
2024-03-09T00:07:21.514Z,26.6510
2024-03-09T00:07:32.581Z,26.6410
2024-03-09T00:07:43.679Z,26.6460
2024-03-09T00:07:54.748Z,26.6350
2024-03-09T00:08:05.957Z,26.6510
2024-03-09T00:08:17.039Z,26.6510
2024-03-09T00:08:28.095Z,26.6510
2024-03-09T00:08:39.141Z,26.6460
2024-03-09T00:08:50.204Z,26.6660
2024-03-09T00:09:01.232Z,26.6600
2024-03-09T00:09:12.284Z,26.6660
2024-03-09T00:09:23.322Z,26.6710
2024-03-09T00:09:34.349Z,26.6660
2024-03-09T00:09:45.405Z,26.6540
2024-03-09T00:09:56.452Z,26.6620
2024-03-09T00:10:07.537Z,26.6620
2024-03-09T00:10:18.620Z,26.6560
2024-03-09T00:10:29.675Z,26.6460
2024-03-09T00:10:40.738Z,26.6410
2024-03-09T00:10:51.841Z,26.6510
2024-03-09T00:11:03.243Z,26.6330
2024-03-09T00:11:14.400Z,26.6540
2024-03-09T00:11:25.595Z,26.6480
2024-03-09T00:11:36.817Z,26.6480
2024-03-09T00:11:47.937Z,26.6480
2024-03-09T00:11:59.019Z,26.6590
2024-03-09T00:12:10.058Z,26.6430
2024-03-09T00:12:21.084Z,26.6410
2024-03-09T00:12:32.137Z,26.6410
2024-03-09T00:12:43.169Z,26.6510
2024-03-09T00:12:54.235Z,26.6510
2024-03-09T00:13:05.437Z,26.6620
2024-03-09T00:13:16.510Z,26.6670
2024-03-09T00:13:27.613Z,26.6600
2024-03-09T00:13:40.283Z,26.6820
2024-03-09T00:13:51.780Z,26.7290
2024-03-09T00:14:02.945Z,26.6970
2024-03-09T00:14:14.080Z,26.6920
2024-03-09T00:14:25.209Z,26.6760
2024-03-09T00:14:36.250Z,26.6710
2024-03-09T00:14:47.287Z,26.6760
2024-03-09T00:14:58.347Z,26.6660
2024-03-09T00:15:09.399Z,26.6710
2024-03-09T00:15:20.523Z,26.6760
2024-03-09T00:15:31.670Z,26.6710
2024-03-09T00:15:42.894Z,26.6820
2024-03-09T00:15:54.064Z,26.6620
2024-03-09T00:16:05.135Z,26.6620
2024-03-09T00:16:16.155Z,26.6560
2024-03-09T00:16:27.253Z,26.6670
2024-03-09T00:16:38.314Z,26.6510
2024-03-09T00:16:49.367Z,26.6720
2024-03-09T00:17:00.566Z,26.6670
2024-03-09T00:17:11.722Z,26.6620
2024-03-09T00:17:22.787Z,26.6670
2024-03-09T00:17:33.856Z,26.6620
2024-03-09T00:17:44.911Z,26.6560
2024-03-09T00:17:56.011Z,26.6510
2024-03-09T00:18:07.077Z,26.6670
2024-03-09T00:18:26.022Z,26.6480
2024-03-09T00:18:41.468Z,26.7740
2024-03-09T00:18:52.032Z,26.8590
2024-03-09T00:19:03.031Z,26.7970
2024-03-09T00:19:14.088Z,26.7430
2024-03-09T00:19:25.225Z,26.7190
2024-03-09T00:19:36.271Z,26.7030
2024-03-09T00:19:47.315Z,26.7030
2024-03-09T00:19:58.486Z,26.6870
2024-03-09T00:20:09.556Z,26.6870
2024-03-09T00:20:20.591Z,26.6820
2024-03-09T00:20:31.675Z,26.6920
2024-03-09T00:20:42.728Z,26.6870
2024-03-09T00:20:53.749Z,26.6820
2024-03-09T00:21:04.791Z,26.6870
2024-03-09T00:21:15.885Z,26.6870
2024-03-09T00:21:26.948Z,26.6920
2024-03-09T00:21:37.994Z,26.6920
2024-03-09T00:21:49.051Z,26.6970
2024-03-09T00:22:00.118Z,26.6880
2024-03-09T00:22:11.150Z,26.6880
2024-03-09T00:22:22.213Z,26.6880
2024-03-09T00:22:33.319Z,26.6920
2024-03-09T00:22:44.369Z,26.7030
2024-03-09T00:22:55.522Z,26.6970
2024-03-09T00:23:07.930Z,26.7030
2024-03-09T00:23:19.562Z,26.7470
2024-03-09T00:23:30.593Z,26.7130
2024-03-09T00:23:41.947Z,26.7030
2024-03-09T00:23:53.430Z,26.7190
2024-03-09T00:24:04.479Z,26.7130
2024-03-09T00:24:15.541Z,26.7080
2024-03-09T00:24:26.590Z,26.6970
2024-03-09T00:24:37.658Z,26.6970
2024-03-09T00:24:48.703Z,26.7080
2024-03-09T00:24:59.760Z,26.6970
2024-03-09T00:25:10.793Z,26.6970
2024-03-09T00:25:21.845Z,26.7130
2024-03-09T00:25:33.015Z,26.7080
2024-03-09T00:25:44.144Z,26.7130
2024-03-09T00:25:55.225Z,26.7080
2024-03-09T00:26:06.243Z,26.7130
2024-03-09T00:26:17.309Z,26.7080
2024-03-09T00:26:28.369Z,26.7240
2024-03-09T00:26:39.419Z,26.7080
2024-03-09T00:26:50.469Z,26.7130
2024-03-09T00:27:01.516Z,26.7130
2024-03-09T00:27:12.541Z,26.7040
2024-03-09T00:27:23.594Z,26.6970
2024-03-09T00:27:34.664Z,26.7130
2024-03-09T00:27:45.714Z,26.7190
2024-03-09T00:27:56.779Z,26.7190
2024-03-09T00:28:08.442Z,26.7190
2024-03-09T00:28:19.666Z,26.7650
2024-03-09T00:28:30.777Z,26.7530
2024-03-09T00:28:42.030Z,26.7430
2024-03-09T00:28:55.976Z,26.7530
2024-03-09T00:29:07.414Z,26.8180
2024-03-09T00:29:18.561Z,26.7860
2024-03-09T00:29:29.640Z,26.7590
2024-03-09T00:29:40.695Z,26.7590
2024-03-09T00:29:51.759Z,26.7410
2024-03-09T00:30:02.822Z,26.7410
2024-03-09T00:30:13.976Z,26.7530
2024-03-09T00:30:25.059Z,26.7480
2024-03-09T00:30:36.596Z,26.7410
2024-03-09T00:30:47.908Z,26.7570
2024-03-09T00:30:58.968Z,26.7520
2024-03-09T00:31:10.028Z,26.7410
2024-03-09T00:31:21.115Z,26.7530
2024-03-09T00:31:32.160Z,26.7430
2024-03-09T00:31:43.182Z,26.7590
2024-03-09T00:31:54.353Z,26.7290
2024-03-09T00:32:05.458Z,26.7430
2024-03-09T00:32:16.508Z,26.7430
2024-03-09T00:32:27.594Z,26.7590
2024-03-09T00:32:38.682Z,26.7590
2024-03-09T00:32:49.765Z,26.7430
2024-03-09T00:33:01.174Z,26.7480
2024-03-09T00:33:12.502Z,26.7590
2024-03-09T00:33:23.609Z,26.7650
2024-03-09T00:33:34.639Z,26.7480
2024-03-09T00:33:45.693Z,26.7650
2024-03-09T00:33:56.719Z,26.7590
2024-03-09T00:34:07.755Z,26.7700
2024-03-09T00:34:18.808Z,26.7650
2024-03-09T00:34:29.882Z,26.7590
2024-03-09T00:34:40.945Z,26.7520
2024-03-09T00:34:52.036Z,26.7410
2024-03-09T00:35:03.176Z,26.7240
2024-03-09T00:35:21.795Z,26.7240
2024-03-09T00:35:32.843Z,26.8920
2024-03-09T00:35:43.910Z,26.8220
2024-03-09T00:35:54.957Z,26.7730
2024-03-09T00:36:06.020Z,26.7520
2024-03-09T00:36:17.105Z,26.7470
2024-03-09T00:36:28.123Z,26.7190
2024-03-09T00:36:39.194Z,26.7290
2024-03-09T00:36:50.256Z,26.7290
2024-03-09T00:37:01.309Z,26.7350
2024-03-09T00:37:12.359Z,26.7350
2024-03-09T00:37:23.416Z,26.7470
2024-03-09T00:37:34.500Z,26.7520
2024-03-09T00:37:45.582Z,26.7590
2024-03-09T00:37:56.726Z,26.7530
2024-03-09T00:38:07.835Z,26.7700
2024-03-09T00:38:18.917Z,26.7650
2024-03-09T00:38:29.984Z,26.7700
2024-03-09T00:38:41.038Z,26.7810
2024-03-09T00:38:52.089Z,26.7860
2024-03-09T00:39:03.175Z,26.7700
2024-03-09T00:39:14.199Z,26.7810
2024-03-09T00:39:25.239Z,26.7650
2024-03-09T00:39:36.279Z,26.7470
2024-03-09T00:39:47.360Z,26.7570
2024-03-09T00:39:58.443Z,26.7520
2024-03-09T00:40:09.479Z,26.7520
2024-03-09T00:40:20.564Z,26.7520
2024-03-09T00:40:31.970Z,26.7410
2024-03-09T00:40:43.414Z,26.7780
2024-03-09T00:40:54.508Z,26.7620
2024-03-09T00:41:05.636Z,26.7680
2024-03-09T00:41:16.790Z,26.7730
2024-03-09T00:41:27.907Z,26.7620
2024-03-09T00:41:38.929Z,26.7470
2024-03-09T00:41:50.003Z,26.7570
2024-03-09T00:42:01.041Z,26.7470
2024-03-09T00:42:12.077Z,26.7520
2024-03-09T00:42:23.119Z,26.7410
2024-03-09T00:42:34.199Z,26.7570
2024-03-09T00:42:45.238Z,26.7570
2024-03-09T00:42:56.269Z,26.7570
2024-03-09T00:43:07.784Z,26.7570
2024-03-09T00:43:19.129Z,26.7760
2024-03-09T00:43:30.214Z,26.7760
2024-03-09T00:43:41.366Z,26.7810
2024-03-09T00:43:52.453Z,26.7760
2024-03-09T00:44:03.531Z,26.7760
2024-03-09T00:44:14.681Z,26.7810
2024-03-09T00:44:25.748Z,26.7810
2024-03-09T00:44:36.818Z,26.7810
2024-03-09T00:44:47.864Z,26.7810
2024-03-09T00:44:58.930Z,26.7760
2024-03-09T00:45:09.980Z,26.7810
2024-03-09T00:45:21.051Z,26.7860
2024-03-09T00:45:32.130Z,26.7810
2024-03-09T00:45:43.192Z,26.7920
2024-03-09T00:45:54.709Z,26.8130
2024-03-09T00:46:05.752Z,26.7920
2024-03-09T00:46:16.783Z,26.7970
2024-03-09T00:46:27.869Z,26.7860
2024-03-09T00:46:38.935Z,26.8020
2024-03-09T00:46:50.048Z,26.7860
2024-03-09T00:47:01.112Z,26.8080
2024-03-09T00:47:12.235Z,26.7960
2024-03-09T00:47:23.281Z,26.8010
2024-03-09T00:47:34.374Z,26.8010
2024-03-09T00:47:45.427Z,26.8060
2024-03-09T00:47:56.541Z,26.8060
2024-03-09T00:48:07.627Z,26.7970
2024-03-09T00:48:18.719Z,26.8060
2024-03-09T00:48:29.740Z,26.8010
2024-03-09T00:48:40.792Z,26.8020
2024-03-09T00:48:51.849Z,26.8020
2024-03-09T00:49:02.909Z,26.7920
2024-03-09T00:49:13.969Z,26.7920
2024-03-09T00:49:25.048Z,26.8080
2024-03-09T00:49:36.105Z,26.8010
2024-03-09T00:49:47.151Z,26.8010
2024-03-09T00:49:58.274Z,26.8220
2024-03-09T00:50:09.434Z,26.8120
2024-03-09T00:50:20.541Z,26.8280
2024-03-09T00:50:31.592Z,26.8080
2024-03-09T00:50:42.670Z,26.8080
2024-03-09T00:50:53.705Z,26.8080
2024-03-09T00:51:04.749Z,26.8120
2024-03-09T00:51:15.795Z,26.8170
2024-03-09T00:51:26.838Z,26.8060
2024-03-09T00:51:37.886Z,26.7970
2024-03-09T00:51:48.948Z,26.8080
2024-03-09T00:52:00.062Z,26.8180
2024-03-09T00:52:11.112Z,26.8080
2024-03-09T00:52:22.165Z,26.8020
2024-03-09T00:52:33.233Z,26.7970
2024-03-09T00:52:44.297Z,26.7970
2024-03-09T00:52:55.480Z,26.7970
2024-03-09T00:53:06.649Z,26.7970
2024-03-09T00:53:17.735Z,26.8080
2024-03-09T00:53:29.918Z,26.8020
2024-03-09T00:53:41.283Z,26.8340
2024-03-09T00:53:52.320Z,26.8240
2024-03-09T00:54:03.362Z,26.8080
2024-03-09T00:54:14.413Z,26.8020
2024-03-09T00:54:25.470Z,26.8020
2024-03-09T00:54:36.521Z,26.7970
2024-03-09T00:54:47.577Z,26.7940
2024-03-09T00:54:58.638Z,26.8100
2024-03-09T00:55:09.695Z,26.8020
2024-03-09T00:55:20.754Z,26.8180
2024-03-09T00:55:31.812Z,26.8130
2024-03-09T00:55:42.952Z,26.8130
2024-03-09T00:55:54.051Z,26.8180
2024-03-09T00:56:05.634Z,26.8400
2024-03-09T00:56:16.810Z,26.8340
2024-03-09T00:56:27.871Z,26.8340
2024-03-09T00:56:38.915Z,26.8240
2024-03-09T00:56:49.982Z,26.8170
2024-03-09T00:57:01.038Z,26.8100
2024-03-09T00:57:12.096Z,26.8100
2024-03-09T00:57:23.155Z,26.8050
2024-03-09T00:57:34.200Z,26.8050
2024-03-09T00:57:45.254Z,26.8100
2024-03-09T00:57:56.281Z,26.8050
2024-03-09T00:58:07.310Z,26.8100
2024-03-09T00:58:18.371Z,26.8100
2024-03-09T00:58:29.454Z,26.8100
2024-03-09T00:58:40.552Z,26.8180
2024-03-09T00:58:51.648Z,26.8070
2024-03-09T00:59:03.524Z,26.8070
2024-03-09T00:59:15.406Z,26.8440
2024-03-09T00:59:26.623Z,26.8330
2024-03-09T00:59:37.677Z,26.8230
2024-03-09T00:59:48.724Z,26.8230
2024-03-09T00:59:59.755Z,26.8070
2024-03-09T01:00:10.814Z,26.8020
2024-03-09T01:00:21.868Z,26.8070
2024-03-09T01:00:32.939Z,26.8130
2024-03-09T01:00:44.050Z,26.8180
2024-03-09T01:00:55.141Z,26.8180
2024-03-09T01:01:06.310Z,26.8130
2024-03-09T01:01:17.425Z,26.8340
2024-03-09T01:01:28.503Z,26.8290
2024-03-09T01:01:39.608Z,26.8270
2024-03-09T01:01:50.652Z,26.8380
2024-03-09T01:02:01.791Z,26.8380
2024-03-09T01:02:12.902Z,26.8270
2024-03-09T01:02:23.947Z,26.8390
2024-03-09T01:02:35.010Z,26.8390
2024-03-09T01:02:46.066Z,26.8230
2024-03-09T01:02:57.114Z,26.8290
2024-03-09T01:03:08.170Z,26.8330
2024-03-09T01:03:19.201Z,26.8480
2024-03-09T01:03:30.266Z,26.8590
2024-03-09T01:03:41.309Z,26.8640
2024-03-09T01:03:52.367Z,26.8700
2024-03-09T01:04:03.380Z,26.8670
2024-03-09T01:04:14.429Z,26.8830
2024-03-09T01:04:25.510Z,26.8880
2024-03-09T01:04:36.638Z,26.8880
2024-03-09T01:04:47.714Z,26.8880
2024-03-09T01:04:58.786Z,26.9100
2024-03-09T01:05:09.880Z,26.9050
2024-03-09T01:05:21.358Z,26.9050
2024-03-09T01:05:32.684Z,26.9210
2024-03-09T01:05:43.691Z,26.9050
2024-03-09T01:05:54.765Z,26.9050
2024-03-09T01:06:05.798Z,26.9050
2024-03-09T01:06:16.851Z,26.9050
2024-03-09T01:06:27.908Z,26.8990
2024-03-09T01:06:38.968Z,26.9210
2024-03-09T01:06:50.028Z,26.9150
2024-03-09T01:07:01.099Z,26.9210
2024-03-09T01:07:12.128Z,26.9210
2024-03-09T01:07:23.202Z,26.9100
2024-03-09T01:07:34.301Z,26.9050
2024-03-09T01:07:45.396Z,26.9100
2024-03-09T01:07:56.464Z,26.9100
2024-03-09T01:08:07.634Z,26.9050
2024-03-09T01:08:21.023Z,26.9150
2024-03-09T01:08:32.463Z,26.9750
2024-03-09T01:08:43.669Z,26.9580
2024-03-09T01:08:54.738Z,26.9430
2024-03-09T01:09:05.749Z,26.9270
2024-03-09T01:09:16.789Z,26.9210
2024-03-09T01:09:27.829Z,26.9130
2024-03-09T01:09:38.916Z,26.9190
2024-03-09T01:09:49.989Z,26.9130
2024-03-09T01:10:01.073Z,26.9080
2024-03-09T01:10:12.098Z,26.9030
2024-03-09T01:10:23.198Z,26.9270
2024-03-09T01:10:34.254Z,26.9210
2024-03-09T01:10:45.396Z,26.9320
2024-03-09T01:10:56.649Z,26.9270
2024-03-09T01:11:08.086Z,26.9350
2024-03-09T01:11:19.337Z,26.9240
2024-03-09T01:11:30.537Z,26.9350
2024-03-09T01:11:41.743Z,26.9240
2024-03-09T01:11:52.911Z,26.9290
2024-03-09T01:12:04.115Z,26.9240
2024-03-09T01:12:15.230Z,26.9240
2024-03-09T01:12:26.279Z,26.9190
2024-03-09T01:12:37.364Z,26.9190
2024-03-09T01:12:48.394Z,26.9240
2024-03-09T01:12:59.423Z,26.9290
2024-03-09T01:13:10.483Z,26.9270
2024-03-09T01:13:21.590Z,26.9430
2024-03-09T01:13:32.717Z,26.9370
2024-03-09T01:13:43.901Z,26.9530
2024-03-09T01:13:55.023Z,26.9480
2024-03-09T01:14:06.114Z,26.9590
2024-03-09T01:14:17.157Z,26.9480
2024-03-09T01:14:28.213Z,26.9590
2024-03-09T01:14:39.323Z,26.9480
2024-03-09T01:14:50.351Z,26.9430
2024-03-09T01:15:01.399Z,26.9560
2024-03-09T01:15:12.461Z,26.9450
2024-03-09T01:15:23.521Z,26.9560
2024-03-09T01:15:34.558Z,26.9480
2024-03-09T01:15:45.588Z,26.9530
2024-03-09T01:15:56.635Z,26.9530
2024-03-09T01:16:07.664Z,26.9690
2024-03-09T01:16:18.707Z,26.9750
2024-03-09T01:16:29.844Z,26.9950
2024-03-09T01:16:40.891Z,26.9840
2024-03-09T01:16:51.961Z,26.9950
2024-03-09T01:17:03.136Z,27.0000
2024-03-09T01:17:14.236Z,27.0000
2024-03-09T01:17:25.344Z,27.0100
2024-03-09T01:17:36.393Z,27.0100
2024-03-09T01:17:47.443Z,27.0100
2024-03-09T01:17:58.575Z,27.0220
2024-03-09T01:18:09.697Z,27.0280
2024-03-09T01:18:20.756Z,27.0330
2024-03-09T01:18:31.830Z,27.0330
2024-03-09T01:18:42.919Z,27.0280
2024-03-09T01:18:53.930Z,27.0380
2024-03-09T01:19:04.980Z,27.0380
2024-03-09T01:19:16.059Z,27.0380
2024-03-09T01:19:27.152Z,27.0440
2024-03-09T01:19:38.224Z,27.0380
2024-03-09T01:19:49.381Z,27.0440
2024-03-09T01:20:00.525Z,27.0490
2024-03-09T01:20:11.791Z,27.0540
2024-03-09T01:20:23.197Z,27.0700
2024-03-09T01:20:34.215Z,27.0490
2024-03-09T01:20:45.286Z,27.0380
2024-03-09T01:20:56.293Z,27.0330
2024-03-09T01:21:07.352Z,27.0440
2024-03-09T01:21:18.423Z,27.0220
2024-03-09T01:21:29.482Z,27.0240
2024-03-09T01:21:40.534Z,27.0240
2024-03-09T01:21:51.555Z,27.0180
2024-03-09T01:22:02.617Z,27.0240
2024-03-09T01:22:13.719Z,27.0180
2024-03-09T01:22:24.762Z,27.0180
2024-03-09T01:22:35.903Z,27.0240
2024-03-09T01:22:47.199Z,27.0340
2024-03-09T01:22:58.437Z,27.0450
2024-03-09T01:23:09.694Z,27.0400
2024-03-09T01:23:20.808Z,27.0400
2024-03-09T01:23:31.882Z,27.0340
2024-03-09T01:23:42.929Z,27.0240
2024-03-09T01:23:54.066Z,27.0290
2024-03-09T01:24:05.145Z,27.0240
2024-03-09T01:24:16.180Z,27.0340
2024-03-09T01:24:27.244Z,27.0340
2024-03-09T01:24:38.272Z,27.0340
2024-03-09T01:24:49.328Z,27.0290
2024-03-09T01:25:00.432Z,27.0290
2024-03-09T01:25:11.465Z,27.0340
2024-03-09T01:25:22.513Z,27.0340
2024-03-09T01:25:33.579Z,27.0290
2024-03-09T01:25:44.644Z,27.0180
2024-03-09T01:25:55.722Z,27.0340
2024-03-09T01:26:06.796Z,27.0400
2024-03-09T01:26:17.837Z,27.0340
2024-03-09T01:26:28.898Z,27.0400
2024-03-09T01:26:39.943Z,27.0340
2024-03-09T01:26:51.007Z,27.0450
2024-03-09T01:27:02.065Z,27.0340
2024-03-09T01:27:13.118Z,27.0450
2024-03-09T01:27:24.160Z,27.0440
2024-03-09T01:27:35.186Z,27.0600
2024-03-09T01:27:46.249Z,27.0490
2024-03-09T01:27:57.305Z,27.0490
2024-03-09T01:28:08.340Z,27.0450
2024-03-09T01:28:19.366Z,27.0400
2024-03-09T01:28:30.447Z,27.0400
2024-03-09T01:28:41.503Z,27.0290
2024-03-09T01:28:52.627Z,27.0240
2024-03-09T01:29:03.756Z,27.0150
2024-03-09T01:29:14.880Z,27.0290
2024-03-09T01:29:25.916Z,27.0340
2024-03-09T01:29:36.977Z,27.0240
2024-03-09T01:29:48.012Z,27.0400
2024-03-09T01:29:59.054Z,27.0450
2024-03-09T01:30:10.190Z,27.0340
2024-03-09T01:30:21.270Z,27.0500
2024-03-09T01:30:32.353Z,27.0450
2024-03-09T01:30:43.410Z,27.0450
2024-03-09T01:30:54.454Z,27.0500
2024-03-09T01:31:05.510Z,27.0400
2024-03-09T01:31:16.561Z,27.0500
2024-03-09T01:31:27.745Z,27.0560
2024-03-09T01:31:38.822Z,27.0540
2024-03-09T01:31:49.901Z,27.0700
2024-03-09T01:32:01.067Z,27.0650
2024-03-09T01:32:12.163Z,27.0650
2024-03-09T01:32:23.203Z,27.0810
2024-03-09T01:32:34.530Z,27.0760
2024-03-09T01:32:45.982Z,27.1030
2024-03-09T01:32:57.120Z,27.1140
2024-03-09T01:33:08.178Z,27.1140
2024-03-09T01:33:19.243Z,27.1140
2024-03-09T01:33:30.281Z,27.1030
2024-03-09T01:33:41.340Z,27.1090
2024-03-09T01:33:52.432Z,27.1140
2024-03-09T01:34:03.571Z,27.0970
2024-03-09T01:34:14.637Z,27.0970
2024-03-09T01:34:25.703Z,27.0920
2024-03-09T01:34:36.831Z,27.0860
2024-03-09T01:34:47.908Z,27.0860
2024-03-09T01:34:58.976Z,27.0810
2024-03-09T01:35:10.214Z,27.0660
2024-03-09T01:35:21.603Z,27.0660
2024-03-09T01:35:32.688Z,27.0660
2024-03-09T01:35:43.757Z,27.0610
2024-03-09T01:35:54.821Z,27.0490
2024-03-09T01:36:07.415Z,27.0540
2024-03-09T01:36:20.629Z,27.1450
2024-03-09T01:36:31.682Z,27.1100
2024-03-09T01:36:42.709Z,27.0540
2024-03-09T01:36:53.770Z,27.0420
2024-03-09T01:37:04.829Z,27.0290
2024-03-09T01:37:15.916Z,27.0210
2024-03-09T01:37:27.052Z,27.0260
2024-03-09T01:37:38.199Z,27.0310
2024-03-09T01:37:49.290Z,27.0370
2024-03-09T01:38:00.395Z,27.0310
2024-03-09T01:38:11.519Z,27.0260
2024-03-09T01:38:22.615Z,27.0310
2024-03-09T01:38:33.694Z,27.0260
2024-03-09T01:38:44.757Z,27.0420
2024-03-09T01:38:55.824Z,27.0370
2024-03-09T01:39:06.889Z,27.0420
2024-03-09T01:39:17.928Z,27.0310
2024-03-09T01:39:28.981Z,27.0310
2024-03-09T01:39:40.242Z,27.0260
2024-03-09T01:39:51.744Z,27.0370
2024-03-09T01:40:03.073Z,27.0420
2024-03-09T01:40:14.123Z,27.0370
2024-03-09T01:40:25.227Z,27.0310
2024-03-09T01:40:36.297Z,27.0310
2024-03-09T01:40:47.348Z,27.0260
2024-03-09T01:40:58.446Z,27.0260
2024-03-09T01:41:09.543Z,27.0150
2024-03-09T01:41:20.638Z,27.0230
2024-03-09T01:41:31.699Z,27.0110
2024-03-09T01:41:42.745Z,27.0010
2024-03-09T01:41:53.825Z,27.0010
2024-03-09T01:42:04.890Z,27.0110
2024-03-09T01:42:15.931Z,27.0060
2024-03-09T01:42:26.989Z,27.0110
2024-03-09T01:42:38.034Z,27.0060
2024-03-09T01:42:49.091Z,27.0150
2024-03-09T01:43:00.137Z,27.0210
2024-03-09T01:43:11.202Z,27.0210
2024-03-09T01:43:22.268Z,27.0150
2024-03-09T01:43:33.314Z,27.0210
2024-03-09T01:43:44.370Z,27.0210
2024-03-09T01:43:55.484Z,27.0150
2024-03-09T01:44:06.618Z,27.0210
2024-03-09T01:44:17.737Z,27.0210
2024-03-09T01:44:28.793Z,27.0340
2024-03-09T01:44:39.830Z,27.0340
2024-03-09T01:44:50.934Z,27.0290
2024-03-09T01:45:02.053Z,27.0340
2024-03-09T01:45:13.123Z,27.0340
2024-03-09T01:45:31.165Z,27.0490
2024-03-09T01:45:42.232Z,27.2220
2024-03-09T01:45:53.296Z,27.1480
2024-03-09T01:46:04.320Z,27.1050
2024-03-09T01:46:22.298Z,27.0700
2024-03-09T01:46:33.408Z,27.2380
2024-03-09T01:46:44.491Z,27.1650
2024-03-09T01:46:55.577Z,27.1100
2024-03-09T01:47:06.709Z,27.0920
2024-03-09T01:47:17.776Z,27.0650
2024-03-09T01:47:28.903Z,27.0490
2024-03-09T01:47:39.996Z,27.0540
2024-03-09T01:47:51.061Z,27.0540
2024-03-09T01:48:02.182Z,27.0440
2024-03-09T01:48:13.422Z,27.0340
2024-03-09T01:48:24.483Z,27.0340
2024-03-09T01:48:35.604Z,27.0290
2024-03-09T01:48:46.663Z,27.0290
2024-03-09T01:48:57.760Z,27.0130
2024-03-09T01:49:08.769Z,27.0130
2024-03-09T01:49:19.830Z,27.0080
2024-03-09T01:49:30.925Z,26.9970
2024-03-09T01:49:41.988Z,27.0130
2024-03-09T01:49:53.328Z,27.0180
2024-03-09T01:50:04.736Z,27.0400
2024-03-09T01:50:15.842Z,27.0290
2024-03-09T01:50:26.881Z,27.0180
2024-03-09T01:50:37.947Z,27.0180
2024-03-09T01:50:49.009Z,27.0130
2024-03-09T01:51:00.025Z,27.0240
2024-03-09T01:51:11.065Z,27.0240
2024-03-09T01:51:22.103Z,27.0220
2024-03-09T01:51:33.156Z,27.0220
2024-03-09T01:51:44.205Z,27.0280
2024-03-09T01:51:55.246Z,27.0380
2024-03-09T01:52:06.293Z,27.0220
2024-03-09T01:52:17.326Z,27.0280
2024-03-09T01:52:28.514Z,27.0280
2024-03-09T01:52:39.600Z,27.0220
2024-03-09T01:52:50.712Z,27.0220
2024-03-09T01:53:01.796Z,27.0240
2024-03-09T01:53:12.867Z,27.0280
2024-03-09T01:53:23.895Z,27.0330
2024-03-09T01:53:34.959Z,27.0280
2024-03-09T01:53:46.013Z,27.0160
2024-03-09T01:53:57.073Z,27.0180
2024-03-09T01:54:08.120Z,27.0130
2024-03-09T01:54:19.163Z,27.0160
2024-03-09T01:54:30.215Z,27.0220
2024-03-09T01:54:42.728Z,27.0380
2024-03-09T01:54:54.228Z,27.0920
2024-03-09T01:55:05.407Z,27.0440
2024-03-09T01:55:16.619Z,27.0440
2024-03-09T01:55:27.737Z,27.0380
2024-03-09T01:55:38.784Z,27.0280
2024-03-09T01:55:49.998Z,27.0280
2024-03-09T01:56:01.071Z,27.0330
2024-03-09T01:56:12.169Z,27.0440
2024-03-09T01:56:23.292Z,27.0440
2024-03-09T01:56:34.341Z,27.0540
2024-03-09T01:56:45.431Z,27.0490
2024-03-09T01:56:56.485Z,27.0380
2024-03-09T01:57:07.523Z,27.0330
2024-03-09T01:57:18.578Z,27.0440
2024-03-09T01:57:29.649Z,27.0490
2024-03-09T01:57:40.690Z,27.0330
2024-03-09T01:57:51.717Z,27.0280
2024-03-09T01:58:02.760Z,27.0330
2024-03-09T01:58:14.015Z,27.0380
2024-03-09T01:58:25.071Z,27.0330
2024-03-09T01:58:36.114Z,27.0380
2024-03-09T01:58:47.201Z,27.0330
2024-03-09T01:58:58.295Z,27.0380
2024-03-09T01:59:09.370Z,27.0240
2024-03-09T01:59:20.415Z,27.0280
2024-03-09T01:59:31.467Z,27.0380
2024-03-09T01:59:42.509Z,27.0290
2024-03-09T01:59:53.521Z,27.0290
2024-03-09T02:00:04.583Z,27.0290
2024-03-09T02:00:15.658Z,27.0180
2024-03-09T02:00:26.703Z,27.0080
2024-03-09T02:00:37.764Z,27.0240
2024-03-09T02:00:48.844Z,27.0130
2024-03-09T02:00:59.881Z,27.0080
2024-03-09T02:01:11.031Z,27.0180
2024-03-09T02:01:22.099Z,27.0180
2024-03-09T02:01:33.260Z,27.0240
2024-03-09T02:01:44.353Z,27.0290
2024-03-09T02:01:55.421Z,27.0180
2024-03-09T02:02:06.505Z,27.0130
2024-03-09T02:02:17.738Z,27.0130
2024-03-09T02:02:28.979Z,27.0340
2024-03-09T02:02:40.100Z,27.0290
2024-03-09T02:02:51.131Z,27.0240
2024-03-09T02:03:02.190Z,27.0240
2024-03-09T02:03:13.236Z,27.0240
2024-03-09T02:03:24.294Z,27.0240
2024-03-09T02:03:35.356Z,27.0340
2024-03-09T02:03:46.416Z,27.0290
2024-03-09T02:03:57.407Z,27.0340
2024-03-09T02:04:08.457Z,27.0400
2024-03-09T02:04:19.501Z,27.0290
2024-03-09T02:04:30.590Z,27.0290
2024-03-09T02:04:41.666Z,27.0290
2024-03-09T02:04:52.974Z,27.0340
2024-03-09T02:05:04.393Z,27.0450
2024-03-09T02:05:15.681Z,27.0660
2024-03-09T02:05:26.783Z,27.0450
2024-03-09T02:05:37.849Z,27.0450
2024-03-09T02:05:48.909Z,27.0450
2024-03-09T02:05:59.942Z,27.0450
2024-03-09T02:06:10.973Z,27.0400
2024-03-09T02:06:22.086Z,27.0400
2024-03-09T02:06:33.133Z,27.0400
2024-03-09T02:06:44.166Z,27.0450
2024-03-09T02:06:55.196Z,27.0450
2024-03-09T02:07:06.243Z,27.0400
2024-03-09T02:07:17.656Z,27.0400
2024-03-09T02:07:29.156Z,27.0720
2024-03-09T02:07:40.247Z,27.0560
2024-03-09T02:07:51.313Z,27.0660
2024-03-09T02:08:02.447Z,27.0540
2024-03-09T02:08:13.679Z,27.0540
2024-03-09T02:08:25.175Z,27.0860
2024-03-09T02:08:36.203Z,27.0700
2024-03-09T02:08:47.237Z,27.0660
2024-03-09T02:08:58.278Z,27.0610
2024-03-09T02:09:09.331Z,27.0560
2024-03-09T02:09:20.387Z,27.0370
2024-03-09T02:09:31.439Z,27.0420
2024-03-09T02:09:42.505Z,27.0370
2024-03-09T02:09:53.586Z,27.0420
2024-03-09T02:10:04.650Z,27.0450
2024-03-09T02:10:15.687Z,27.0370
2024-03-09T02:10:26.852Z,27.0370
2024-03-09T02:10:37.933Z,27.0420
2024-03-09T02:10:49.131Z,27.0420
2024-03-09T02:11:00.323Z,27.0420
2024-03-09T02:11:11.487Z,27.0610
2024-03-09T02:11:22.648Z,27.0610
2024-03-09T02:11:33.840Z,27.0560
2024-03-09T02:11:45.014Z,27.0720
2024-03-09T02:11:56.102Z,27.0610
2024-03-09T02:12:07.192Z,27.0610
2024-03-09T02:12:18.576Z,27.0660
2024-03-09T02:12:29.953Z,27.0890
2024-03-09T02:12:40.997Z,27.0660
2024-03-09T02:12:52.075Z,27.0660
2024-03-09T02:13:03.148Z,27.0610
2024-03-09T02:13:14.188Z,27.0720
2024-03-09T02:13:25.305Z,27.0660
2024-03-09T02:13:36.413Z,27.0780
2024-03-09T02:13:47.507Z,27.0610
2024-03-09T02:13:59.230Z,27.0890
2024-03-09T02:14:10.327Z,27.0720
2024-03-09T02:14:21.364Z,27.0660
2024-03-09T02:14:32.414Z,27.0780
2024-03-09T02:14:43.464Z,27.0560
2024-03-09T02:14:54.532Z,27.0660
2024-03-09T02:15:05.585Z,27.0560